Time;durP1;ratioP1;P1;durP2;ratioP2;P2;SDS_P1;SDS_P2;PMS_P1;PMS_P2;Temp;Humidity;BMP_temperature;BMP_pressure;BME280_temperature;BME280_humidity;BME280_pressure;Samples;Min_cycle;Max_cycle;Signal;HPM_P1;HPM_P2
2023/05/11 00:01:19;;;;;;;0.70;0.50;;;14.00;99.90;;;;;;5003468;28;20061;-76
2023/05/11 00:03:45;;;;;;;2.85;0.82;;;14.00;99.90;;;;;;5012987;28;20054;-76
2023/05/11 00:06:12;;;;;;;2.92;0.80;;;13.90;99.90;;;;;;5002727;28;20078;-76
2023/05/11 00:08:39;;;;;;;1.67;0.60;;;13.90;99.90;;;;;;5012591;28;20056;-76
2023/05/11 00:11:09;;;;;;;1.40;0.50;;;13.90;99.90;;;;;;5006014;28;20048;-76
2023/05/11 00:13:36;;;;;;;2.22;0.93;;;13.90;99.90;;;;;;5006658;28;20038;-76
2023/05/11 00:16:03;;;;;;;2.42;0.80;;;13.90;99.90;;;;;;5001567;28;20054;-76
2023/05/11 00:18:30;;;;;;;0.68;0.57;;;13.90;99.90;;;;;;4997986;28;20477;-76
2023/05/11 00:20:57;;;;;;;3.67;0.90;;;13.80;99.90;;;;;;5001336;28;20089;-76
2023/05/11 00:23:24;;;;;;;2.65;0.82;;;13.80;99.90;;;;;;5004248;28;20051;-76
2023/05/11 00:25:51;;;;;;;2.97;0.50;;;13.80;99.90;;;;;;5007400;28;20050;-76
2023/05/11 00:28:17;;;;;;;1.35;0.70;;;13.80;99.90;;;;;;5006034;28;20446;-76
2023/05/11 00:30:44;;;;;;;2.20;0.70;;;13.80;99.90;;;;;;5012130;28;20466;-76
2023/05/11 00:33:11;;;;;;;1.67;0.70;;;13.80;99.90;;;;;;4997028;28;20050;-76
2023/05/11 00:35:38;;;;;;;2.05;0.70;;;13.80;99.90;;;;;;5000125;28;20128;-76
2023/05/11 00:38:05;;;;;;;2.17;1.00;;;13.80;99.90;;;;;;4999846;28;20057;-76
2023/05/11 00:40:32;;;;;;;1.40;0.70;;;13.80;99.90;;;;;;5022242;28;20054;-77
2023/05/11 00:42:58;;;;;;;4.50;1.00;;;13.80;99.90;;;;;;5005177;28;20050;-76
2023/05/11 00:45:26;;;;;;;3.60;0.70;;;13.80;99.90;;;;;;5002633;28;20055;-76
2023/05/11 00:47:52;;;;;;;2.28;0.82;;;13.80;99.90;;;;;;4981760;28;20049;-76
2023/05/11 00:50:20;;;;;;;1.80;0.60;;;13.80;99.90;;;;;;5005905;28;20096;-76
2023/05/11 00:52:46;;;;;;;2.08;0.80;;;13.80;99.90;;;;;;4999697;28;20509;-76
2023/05/11 00:55:15;;;;;;;2.05;0.70;;;13.80;99.90;;;;;;5005004;28;20050;-76
2023/05/11 00:57:42;;;;;;;1.58;0.85;;;13.80;99.90;;;;;;5010744;28;20050;-76
2023/05/11 01:00:09;;;;;;;1.52;0.70;;;13.80;99.90;;;;;;5020259;28;20551;-76
2023/05/11 01:02:36;;;;;;;4.00;0.80;;;13.80;99.90;;;;;;4997260;28;20042;-76
2023/05/11 01:05:03;;;;;;;0.98;0.68;;;13.80;99.90;;;;;;4983516;28;20058;-76
2023/05/11 01:07:47;;;;;;;1.30;0.70;;;13.80;99.90;;;;;;5001064;28;20046;-76
2023/05/11 01:10:55;;;;;;;3.22;0.70;;;13.80;99.90;;;;;;5022204;28;20069;-76
2023/05/11 01:13:33;;;;;;;3.80;0.90;;;13.70;99.90;;;;;;5004057;28;20137;-76
2023/05/11 01:16:07;;;;;;;3.90;0.60;;;13.70;99.90;;;;;;5000799;28;20411;-76
2023/05/11 01:18:40;;;;;;;2.28;0.77;;;13.70;99.90;;;;;;5002877;28;20061;-76
2023/05/11 01:21:09;;;;;;;2.28;1.00;;;13.70;99.90;;;;;;5006193;28;20065;-76
2023/05/11 01:23:44;;;;;;;5.35;0.90;;;13.70;99.90;;;;;;5009078;28;20421;-76
2023/05/11 01:26:45;;;;;;;3.08;0.63;;;13.60;99.90;;;;;;5019290;28;20054;-76
2023/05/11 01:29:11;;;;;;;3.15;0.90;;;13.60;99.90;;;;;;5003345;28;20050;-76
2023/05/11 01:31:45;;;;;;;7.53;0.80;;;13.60;99.90;;;;;;4999159;28;20133;-76
2023/05/11 01:34:18;;;;;;;3.08;1.05;;;13.60;99.90;;;;;;5000466;28;20046;-75
2023/05/11 01:36:59;;;;;;;2.45;1.17;;;13.60;99.90;;;;;;5007349;28;20056;-76
2023/05/11 01:39:39;;;;;;;3.13;0.95;;;13.60;99.90;;;;;;5015818;28;20081;-76
2023/05/11 01:42:08;;;;;;;2.40;0.80;;;13.60;99.90;;;;;;5004556;28;20405;-76
2023/05/11 01:44:41;;;;;;;1.30;0.80;;;13.60;99.90;;;;;;5005546;28;20115;-76
2023/05/11 01:47:09;;;;;;;1.92;0.60;;;13.60;99.90;;;;;;4997076;28;20129;-75
2023/05/11 01:49:37;;;;;;;2.05;0.88;;;13.60;99.90;;;;;;4995543;28;20501;-75
2023/05/11 01:52:07;;;;;;;1.95;0.70;;;13.60;99.90;;;;;;4999241;28;20495;-76
2023/05/11 01:54:36;;;;;;;4.40;1.67;;;13.60;99.90;;;;;;5002151;28;20130;-76
2023/05/11 01:57:03;;;;;;;1.17;0.60;;;13.60;99.90;;;;;;5004078;28;20281;-76
2023/05/11 01:59:32;;;;;;;2.40;1.00;;;13.60;99.90;;;;;;5005387;28;20052;-76
2023/05/11 02:02:00;;;;;;;3.58;0.90;;;13.60;99.90;;;;;;5007739;28;20058;-76
2023/05/11 02:04:29;;;;;;;2.03;0.52;;;13.50;99.90;;;;;;4995353;28;20137;-76
2023/05/11 02:06:58;;;;;;;1.98;0.95;;;13.50;99.90;;;;;;5000544;28;20451;-76
2023/05/11 02:09:27;;;;;;;1.97;1.10;;;13.50;99.90;;;;;;4999310;28;20058;-76
2023/05/11 02:11:56;;;;;;;1.05;0.70;;;13.50;99.90;;;;;;5009063;28;20152;-76
2023/05/11 02:14:24;;;;;;;1.92;0.90;;;13.50;99.90;;;;;;5005365;28;20074;-76
2023/05/11 02:16:51;;;;;;;1.67;0.88;;;13.50;99.90;;;;;;5007309;28;20070;-76
2023/05/11 02:19:20;;;;;;;0.90;0.60;;;13.50;99.90;;;;;;4994201;28;20046;-76
2023/05/11 02:21:48;;;;;;;2.72;0.90;;;13.50;99.90;;;;;;5008381;28;20077;-76
2023/05/11 02:24:17;;;;;;;2.10;0.80;;;13.50;99.90;;;;;;5014832;28;20113;-76
2023/05/11 02:26:43;;;;;;;4.43;0.93;;;13.50;99.90;;;;;;5009886;28;20174;-76
2023/05/11 02:29:10;;;;;;;2.47;1.10;;;13.40;99.90;;;;;;5005695;28;20412;-76
2023/05/11 02:31:43;;;;;;;3.90;1.00;;;13.40;99.90;;;;;;4999038;28;20050;-76
2023/05/11 02:34:26;;;;;;;3.70;0.70;;;13.40;99.90;;;;;;4996087;28;20133;-76
2023/05/11 02:36:57;;;;;;;2.55;0.82;;;13.40;99.90;;;;;;5000531;28;20060;-76
2023/05/11 02:39:32;;;;;;;3.45;1.05;;;13.40;99.90;;;;;;5000149;28;20058;-76
2023/05/11 02:42:07;;;;;;;3.85;1.17;;;13.40;99.90;;;;;;5008404;28;20046;-76
2023/05/11 02:44:36;;;;;;;1.85;1.10;;;13.40;99.90;;;;;;5006462;28;20046;-76
2023/05/11 02:47:08;;;;;;;2.42;0.90;;;13.30;99.90;;;;;;4997028;28;20484;-76
2023/05/11 02:49:37;;;;;;;3.92;1.10;;;13.30;99.90;;;;;;5005106;28;20085;-76
2023/05/11 02:52:05;;;;;;;5.82;1.08;;;13.40;99.90;;;;;;5011762;28;20058;-75
2023/05/11 02:54:32;;;;;;;7.35;1.00;;;13.30;99.90;;;;;;5000725;28;20077;-76
2023/05/11 02:57:00;;;;;;;3.10;0.95;;;13.30;99.90;;;;;;5000431;28;20100;-76
2023/05/11 02:59:27;;;;;;;1.80;0.90;;;13.40;99.90;;;;;;5001636;28;20148;-76
2023/05/11 03:01:54;;;;;;;3.85;1.17;;;13.40;99.90;;;;;;4999115;28;20129;-76
2023/05/11 03:04:21;;;;;;;4.63;1.40;;;13.40;99.90;;;;;;5002541;28;20081;-76
2023/05/11 03:06:48;;;;;;;6.00;1.33;;;13.40;99.90;;;;;;5000357;28;20050;-76
2023/05/11 03:09:15;;;;;;;2.60;0.75;;;13.40;99.90;;;;;;5000769;28;20074;-76
2023/05/11 03:11:43;;;;;;;2.47;1.13;;;13.40;99.90;;;;;;5002022;28;20149;-76
2023/05/11 03:14:10;;;;;;;3.58;1.00;;;13.40;99.90;;;;;;5000338;28;20057;-76
2023/05/11 03:16:37;;;;;;;1.58;0.98;;;13.40;99.90;;;;;;5002834;28;20115;-76
2023/05/11 03:19:06;;;;;;;1.98;1.08;;;13.40;99.90;;;;;;5004544;28;20118;-76
2023/05/11 03:21:36;;;;;;;1.52;0.70;;;13.30;99.90;;;;;;5002427;28;20046;-76
2023/05/11 03:24:06;;;;;;;3.28;1.00;;;13.30;99.90;;;;;;5006646;28;20096;-77
2023/05/11 03:26:35;;;;;;;3.25;1.45;;;13.30;99.90;;;;;;5004380;28;20137;-77
2023/05/11 03:29:02;;;;;;;5.78;1.95;;;13.30;99.90;;;;;;5002472;28;20054;-77
2023/05/11 03:31:29;;;;;;;3.70;1.23;;;13.20;99.90;;;;;;4994976;28;20130;-76
2023/05/11 03:33:56;;;;;;;3.30;1.13;;;13.20;99.90;;;;;;4999673;28;20086;-76
2023/05/11 03:36:24;;;;;;;2.45;1.15;;;13.20;99.90;;;;;;5000302;28;20056;-76
2023/05/11 03:38:55;;;;;;;3.70;1.10;;;13.20;99.90;;;;;;5000877;28;20504;-76
2023/05/11 03:41:24;;;;;;;4.97;1.33;;;13.20;99.90;;;;;;4999290;28;20058;-76
2023/05/11 03:43:52;;;;;;;2.00;1.10;;;13.20;99.90;;;;;;4995244;28;20078;-76
2023/05/11 03:46:21;;;;;;;3.17;1.02;;;13.20;99.90;;;;;;5001618;28;20372;-76
2023/05/11 03:48:49;;;;;;;3.70;1.50;;;13.10;99.90;;;;;;5002415;28;20054;-77
2023/05/11 03:51:16;;;;;;;3.83;1.60;;;13.20;99.90;;;;;;5002448;28;20054;-76
2023/05/11 03:53:43;;;;;;;6.72;1.38;;;13.20;99.90;;;;;;5003349;28;20050;-77
2023/05/11 03:56:10;;;;;;;3.47;1.30;;;13.20;99.90;;;;;;5003881;28;20524;-76
2023/05/11 03:58:39;;;;;;;6.03;1.65;;;13.20;99.90;;;;;;5001554;28;20137;-76
2023/05/11 04:01:08;;;;;;;4.22;1.42;;;13.20;99.90;;;;;;5004354;28;20417;-76
2023/05/11 04:03:55;;;;;;;4.05;1.60;;;13.20;99.90;;;;;;5003300;28;20562;-77
2023/05/11 04:06:22;;;;;;;3.30;1.23;;;13.20;99.90;;;;;;5019448;28;20069;-77
2023/05/11 04:08:49;;;;;;;4.60;1.80;;;13.20;99.90;;;;;;5003549;28;20056;-77
2023/05/11 04:11:16;;;;;;;4.20;1.20;;;13.10;99.90;;;;;;5006082;28;20054;-76
2023/05/11 04:13:42;;;;;;;3.65;1.38;;;13.10;99.90;;;;;;5002902;28;20056;-76
2023/05/11 04:16:09;;;;;;;3.95;1.60;;;13.10;99.90;;;;;;4987348;28;20100;-77
2023/05/11 04:18:36;;;;;;;4.35;1.42;;;13.10;99.90;;;;;;5003276;28;20475;-77
2023/05/11 04:21:05;;;;;;;4.63;1.20;;;13.10;99.90;;;;;;5003321;28;20057;-76
2023/05/11 04:23:31;;;;;;;4.30;1.35;;;13.10;99.90;;;;;;5005610;28;20053;-77
2023/05/11 04:25:58;;;;;;;2.03;1.20;;;13.10;99.90;;;;;;5002951;28;20101;-76
2023/05/11 04:28:26;;;;;;;6.95;1.95;;;13.00;99.90;;;;;;5002865;28;20107;-77
2023/05/11 04:30:54;;;;;;;4.00;1.50;;;13.10;99.90;;;;;;5003546;28;20128;-76
2023/05/11 04:33:21;;;;;;;1.85;0.90;;;13.10;99.90;;;;;;5002283;28;20402;-75
2023/05/11 04:35:53;;;;;;;4.30;1.30;;;13.10;99.90;;;;;;5003550;28;20042;-76
2023/05/11 04:38:20;;;;;;;2.42;1.40;;;13.10;99.90;;;;;;5003892;28;20105;-75
2023/05/11 04:40:49;;;;;;;2.63;1.30;;;13.10;99.90;;;;;;5001352;28;20062;-75
2023/05/11 04:43:16;;;;;;;4.55;1.10;;;13.10;99.90;;;;;;5004145;28;20078;-76
2023/05/11 04:45:48;;;;;;;3.40;1.50;;;13.10;99.90;;;;;;5001628;28;20513;-76
2023/05/11 04:48:15;;;;;;;3.70;1.40;;;13.10;99.90;;;;;;5001267;28;20061;-75
2023/05/11 04:50:46;;;;;;;5.35;1.35;;;13.20;99.90;;;;;;5001980;28;20121;-76
2023/05/11 04:53:13;;;;;;;4.45;1.05;;;13.20;99.90;;;;;;5003830;28;20050;-75
2023/05/11 04:55:40;;;;;;;3.33;1.20;;;13.20;99.90;;;;;;5003335;28;20050;-76
2023/05/11 04:58:06;;;;;;;4.35;1.05;;;13.20;99.90;;;;;;5002096;28;20068;-76
2023/05/11 05:00:35;;;;;;;5.57;1.58;;;13.20;99.90;;;;;;5003720;28;20140;-75
2023/05/11 05:03:02;;;;;;;2.17;1.35;;;13.20;99.90;;;;;;5001242;28;20065;-76
2023/05/11 05:05:28;;;;;;;3.17;1.50;;;13.20;99.90;;;;;;5006219;28;20528;-76
2023/05/11 05:07:55;;;;;;;5.18;1.67;;;13.20;99.90;;;;;;5009993;28;20045;-75
2023/05/11 05:10:22;;;;;;;2.53;1.20;;;13.20;99.90;;;;;;5005840;28;20410;-75
2023/05/11 05:12:49;;;;;;;3.13;1.27;;;13.30;99.90;;;;;;5010467;28;20401;-76
2023/05/11 05:15:15;;;;;;;5.43;1.40;;;13.30;99.90;;;;;;5000260;28;20077;-76
2023/05/11 05:17:42;;;;;;;6.07;2.22;;;13.30;99.90;;;;;;4999128;28;20617;-76
2023/05/11 05:20:09;;;;;;;2.30;1.25;;;13.30;99.90;;;;;;5004199;28;20046;-75
2023/05/11 05:22:36;;;;;;;3.75;1.10;;;13.30;99.90;;;;;;5002823;28;20489;-78
2023/05/11 05:25:03;;;;;;;3.50;1.33;;;13.30;99.90;;;;;;5020908;28;20134;-78
2023/05/11 05:27:31;;;;;;;4.85;2.08;;;13.30;99.90;;;;;;5009651;28;20081;-75
2023/05/11 05:30:00;;;;;;;;;;;13.30;99.90;;;;;;5004110;28;20109;-75
2023/05/11 05:32:27;;;;;;;2.80;1.10;;;13.40;99.90;;;;;;5003688;28;19925;-75
2023/05/11 05:34:54;;;;;;;5.05;1.30;;;13.40;99.90;;;;;;5019747;28;20060;-75
2023/05/11 05:37:21;;;;;;;4.53;1.40;;;13.50;99.90;;;;;;5009496;28;20128;-77
2023/05/11 05:39:48;;;;;;;3.03;1.10;;;13.50;99.90;;;;;;5008777;28;20058;-76
2023/05/11 05:42:14;;;;;;;3.35;1.17;;;13.50;99.90;;;;;;5000923;28;20133;-76
2023/05/11 05:44:41;;;;;;;2.80;2.05;;;13.60;99.90;;;;;;5005231;28;20049;-75
2023/05/11 05:47:08;;;;;;;5.90;2.35;;;13.60;99.90;;;;;;4996522;28;20158;-76
2023/05/11 05:49:35;;;;;;;3.88;1.63;;;13.70;99.90;;;;;;5018752;28;20050;-74
2023/05/11 05:52:01;;;;;;;2.72;2.10;;;13.70;99.90;;;;;;5006442;28;20149;-78
2023/05/11 05:54:28;;;;;;;5.47;1.95;;;13.70;99.90;;;;;;5022737;23;20060;-84
2023/05/11 05:56:55;;;;;;;4.60;2.30;;;13.70;99.90;;;;;;5048786;28;20525;-84
2023/05/11 05:59:23;;;;;;;4.10;1.60;;;13.80;99.90;;;;;;5044373;28;20045;-80
2023/05/11 06:01:50;;;;;;;3.85;1.35;;;13.80;99.90;;;;;;5046015;28;20049;-82
2023/05/11 06:04:17;;;;;;;4.65;1.55;;;13.90;99.90;;;;;;5046851;28;20446;-81
2023/05/11 06:06:45;;;;;;;4.28;1.20;;;13.90;99.90;;;;;;5011800;28;20105;-81
2023/05/11 06:09:12;;;;;;;2.58;1.00;;;13.90;99.90;;;;;;5011311;28;20050;-81
2023/05/11 06:11:39;;;;;;;4.82;1.60;;;14.00;99.90;;;;;;5012032;28;20047;-81
2023/05/11 06:14:05;;;;;;;4.97;1.13;;;14.00;99.90;;;;;;5010238;28;20121;-80
2023/05/11 06:16:32;;;;;;;2.53;1.30;;;14.00;99.90;;;;;;5009657;28;20073;-84
2023/05/11 06:18:59;;;;;;;3.03;1.40;;;14.00;99.90;;;;;;5004913;28;20387;-82
2023/05/11 06:21:26;;;;;;;4.38;1.50;;;14.00;99.90;;;;;;5017338;28;20141;-81
2023/05/11 06:23:53;;;;;;;4.82;1.33;;;14.10;99.90;;;;;;5017196;28;20428;-82
2023/05/11 06:26:23;;;;;;;3.30;1.33;;;14.20;99.90;;;;;;5014045;28;20141;-81
2023/05/11 06:28:51;;;;;;;4.00;1.13;;;14.20;99.90;;;;;;5011013;28;20299;-82
2023/05/11 06:31:18;;;;;;;6.15;1.58;;;14.30;99.90;;;;;;5005445;28;20082;-80
2023/05/11 06:33:45;;;;;;;1.60;0.90;;;14.30;99.90;;;;;;5019521;28;20080;-81
2023/05/11 06:36:11;;;;;;;2.63;1.10;;;14.40;99.90;;;;;;5015337;28;20101;-81
2023/05/11 06:38:38;;;;;;;1.85;1.35;;;14.50;99.90;;;;;;5010937;28;20054;-81
2023/05/11 06:41:05;;;;;;;2.45;1.55;;;14.60;99.90;;;;;;5016466;28;20054;-82
2023/05/11 06:43:32;;;;;;;1.95;1.15;;;14.60;99.90;;;;;;5010212;28;20113;-82
2023/05/11 06:45:59;;;;;;;2.03;1.10;;;14.70;99.90;;;;;;5013783;28;20526;-81
2023/05/11 06:48:28;;;;;;;4.88;1.30;;;14.70;99.90;;;;;;5005383;28;20046;-82
2023/05/11 06:50:56;;;;;;;3.03;1.27;;;14.80;99.90;;;;;;5017581;28;20056;-81
2023/05/11 06:53:22;;;;;;;3.10;1.33;;;14.80;99.90;;;;;;5016036;28;20072;-81
2023/05/11 06:55:49;;;;;;;1.92;1.00;;;14.90;99.90;;;;;;5019965;28;20053;-81
2023/05/11 06:58:19;;;;;;;3.60;1.42;;;14.90;99.90;;;;;;5017565;28;20050;-82
2023/05/11 07:00:46;;;;;;;3.08;1.30;;;15.00;99.90;;;;;;5011128;28;20049;-82
2023/05/11 07:03:13;;;;;;;6.40;1.50;;;15.00;99.90;;;;;;5011097;28;20076;-81
2023/05/11 07:05:40;;;;;;;4.05;1.27;;;15.10;99.90;;;;;;5018452;28;20073;-80
2023/05/11 07:08:06;;;;;;;1.38;0.90;;;15.20;99.90;;;;;;5017867;28;20112;-82
2023/05/11 07:10:33;;;;;;;1.83;1.15;;;15.20;99.90;;;;;;5018593;28;20053;-80
2023/05/11 07:13:00;;;;;;;3.22;1.10;;;15.30;99.90;;;;;;5021355;28;20046;-81
2023/05/11 07:15:27;;;;;;;3.63;0.90;;;15.30;99.90;;;;;;5010007;28;20137;-82
2023/05/11 07:17:53;;;;;;;2.53;1.20;;;15.40;99.90;;;;;;5007793;28;20074;-80
2023/05/11 07:20:20;;;;;;;3.60;0.95;;;15.50;99.90;;;;;;5014574;28;20054;-81
2023/05/11 07:22:47;;;;;;;3.97;1.40;;;15.50;99.90;;;;;;5012946;28;20053;-82
2023/05/11 07:25:14;;;;;;;1.13;0.88;;;15.60;99.90;;;;;;5012887;28;20526;-81
2023/05/11 07:27:41;;;;;;;3.45;1.42;;;15.70;99.90;;;;;;5014621;28;20054;-82
2023/05/11 07:30:08;;;;;;;3.75;1.30;;;15.80;99.90;;;;;;5014864;28;20042;-82
2023/05/11 07:32:35;;;;;;;4.20;1.30;;;15.90;99.90;;;;;;5007463;28;20050;-82
2023/05/11 07:35:02;;;;;;;3.40;1.40;;;16.00;99.90;;;;;;5013287;28;20049;-82
2023/05/11 07:37:29;;;;;;;2.25;1.27;;;16.10;99.90;;;;;;5012571;28;20054;-81
2023/05/11 07:39:55;;;;;;;2.90;1.20;;;16.20;99.90;;;;;;5010678;28;20037;-82
2023/05/11 07:42:22;;;;;;;1.85;1.00;;;16.30;99.90;;;;;;5012441;28;20050;-81
2023/05/11 07:44:49;;;;;;;2.35;1.45;;;16.40;99.90;;;;;;5012885;28;20107;-82
2023/05/11 07:47:17;;;;;;;2.38;1.27;;;16.50;99.90;;;;;;5005201;28;20042;-81
2023/05/11 07:49:46;;;;;;;1.40;0.80;;;16.60;99.90;;;;;;5013928;28;20085;-81
2023/05/11 07:52:13;;;;;;;3.72;1.10;;;16.70;99.90;;;;;;5014376;28;20042;-82
2023/05/11 07:54:40;;;;;;;2.40;1.00;;;16.80;99.90;;;;;;5017342;28;20088;-83
2023/05/11 07:57:07;;;;;;;3.25;0.85;;;16.90;99.90;;;;;;5017377;28;20100;-82
2023/05/11 07:59:34;;;;;;;5.25;1.20;;;17.00;99.90;;;;;;5014745;28;20065;-82
2023/05/11 08:02:01;;;;;;;1.73;1.00;;;17.10;99.90;;;;;;5015485;28;20113;-82
2023/05/11 08:04:29;;;;;;;4.35;1.10;;;17.20;99.90;;;;;;5008363;28;20061;-81
2023/05/11 08:06:57;;;;;;;2.38;1.17;;;17.20;99.90;;;;;;5009538;28;20070;-80
2023/05/11 08:09:23;;;;;;;4.72;1.40;;;17.30;99.90;;;;;;5011170;28;20045;-80
2023/05/11 08:11:50;;;;;;;2.58;0.80;;;17.30;99.90;;;;;;5007263;28;20034;-82
2023/05/11 08:14:17;;;;;;;4.00;1.27;;;17.40;99.90;;;;;;5006217;28;20047;-81
2023/05/11 08:16:43;;;;;;;1.65;1.00;;;17.40;99.90;;;;;;5011113;28;20109;-80
2023/05/11 08:19:11;;;;;;;1.70;1.00;;;17.40;99.90;;;;;;5025092;28;20061;-82
2023/05/11 08:21:39;;;;;;;1.65;0.90;;;17.30;99.90;;;;;;5023366;28;20437;-82
2023/05/11 08:24:05;;;;;;;3.25;1.00;;;17.30;99.90;;;;;;5014323;28;20129;-81
2023/05/11 08:26:32;;;;;;;3.22;1.10;;;17.30;99.90;;;;;;5003417;28;20050;-82
2023/05/11 08:28:59;;;;;;;2.70;0.85;;;17.30;99.90;;;;;;5004888;28;20042;-81
2023/05/11 08:31:26;;;;;;;10.50;2.10;;;17.40;99.90;;;;;;4999968;28;20052;-81
2023/05/11 08:33:52;;;;;;;2.40;1.10;;;17.50;99.90;;;;;;5012641;28;20042;-80
2023/05/11 08:36:19;;;;;;;2.25;0.75;;;17.50;99.90;;;;;;5004150;28;20721;-82
2023/05/11 08:38:46;;;;;;;3.42;0.98;;;17.60;99.90;;;;;;5005055;28;20054;-82
2023/05/11 08:41:13;;;;;;;2.67;0.82;;;17.70;99.90;;;;;;5011110;28;20050;-82
2023/05/11 08:43:40;;;;;;;1.48;0.73;;;17.60;99.90;;;;;;5002921;28;20074;-82
2023/05/11 08:46:09;;;;;;;1.48;0.80;;;17.50;99.90;;;;;;5018795;28;20057;-83
2023/05/11 08:48:37;;;;;;;3.03;1.15;;;17.60;99.90;;;;;;5023808;28;20053;-82
2023/05/11 08:51:04;;;;;;;2.92;1.00;;;17.60;99.90;;;;;;5024578;28;20050;-81
2023/05/11 08:53:31;;;;;;;2.65;1.00;;;17.60;99.90;;;;;;5008392;28;20042;-81
2023/05/11 08:56:00;;;;;;;2.60;1.13;;;17.50;99.90;;;;;;5011282;28;20054;-81
2023/05/11 08:58:28;;;;;;;1.38;0.98;;;17.50;99.90;;;;;;5009464;28;20524;-82
2023/05/11 09:00:56;;;;;;;2.42;1.23;;;17.40;99.90;;;;;;5000184;28;20041;-82
2023/05/11 09:03:23;;;;;;;1.88;1.00;;;17.30;99.90;;;;;;5003060;28;20049;-82
2023/05/11 09:05:51;;;;;;;3.60;1.45;;;17.30;99.90;;;;;;5009552;28;20109;-82
2023/05/11 09:08:21;;;;;;;4.43;1.13;;;17.20;99.90;;;;;;5004941;28;20102;-80
2023/05/11 09:10:48;;;;;;;3.67;1.15;;;17.20;99.90;;;;;;5006098;28;20057;-82
2023/05/11 09:13:15;;;;;;;3.00;1.40;;;17.10;99.90;;;;;;5009796;28;20053;-82
2023/05/11 09:15:42;;;;;;;1.55;1.05;;;17.00;99.90;;;;;;5000873;28;20154;-82
2023/05/11 09:18:09;;;;;;;4.82;1.80;;;17.00;99.90;;;;;;5001243;28;20111;-83
2023/05/11 09:20:38;;;;;;;1.63;0.98;;;17.10;99.90;;;;;;5009874;28;20038;-83
2023/05/11 09:23:06;;;;;;;2.92;1.20;;;17.10;99.90;;;;;;5007763;28;20038;-82
2023/05/11 09:25:33;;;;;;;2.10;1.13;;;17.10;99.90;;;;;;5003586;28;20042;-82
2023/05/11 09:28:00;;;;;;;3.55;1.38;;;17.10;99.90;;;;;;5004515;28;20132;-81
2023/05/11 09:30:27;;;;;;;1.85;1.00;;;17.10;99.90;;;;;;4999135;28;20065;-83
2023/05/11 09:32:59;;;;;;;1.92;1.00;;;16.90;99.90;;;;;;4998566;28;20034;-84
2023/05/11 09:35:33;;;;;;;2.35;1.08;;;16.90;99.90;;;;;;5003616;28;20506;-83
2023/05/11 09:38:01;;;;;;;2.25;1.00;;;17.00;99.90;;;;;;5007608;28;20041;-84
2023/05/11 09:40:29;;;;;;;4.90;1.20;;;16.90;99.90;;;;;;5013886;28;20034;-83
2023/05/11 09:43:02;;;;;;;3.72;1.42;;;16.90;99.90;;;;;;5019357;28;20042;-83
2023/05/11 09:45:43;;;;;;;1.83;1.08;;;16.90;99.90;;;;;;5007394;28;20391;-82
2023/05/11 09:48:24;;;;;;;1.00;0.90;;;16.90;99.90;;;;;;5015485;28;20485;-80
2023/05/11 09:51:01;;;;;;;3.17;0.90;;;16.90;99.90;;;;;;5004727;28;20054;-83
2023/05/11 09:53:44;;;;;;;3.35;1.35;;;16.80;99.90;;;;;;5005548;28;20034;-82
2023/05/11 09:56:11;;;;;;;2.85;1.17;;;16.80;99.90;;;;;;5004974;28;20121;-83
2023/05/11 09:58:53;;;;;;;3.13;1.30;;;16.90;99.90;;;;;;5005607;28;20129;-83
2023/05/11 10:01:29;;;;;;;2.75;1.00;;;16.70;99.90;;;;;;5002317;28;20126;-84
2023/05/11 10:03:56;;;;;;;4.20;1.27;;;16.60;99.90;;;;;;5005872;28;20041;-83
2023/05/11 10:06:51;;;;;;;2.42;1.17;;;16.70;99.90;;;;;;5004135;28;20061;-83
2023/05/11 10:09:23;;;;;;;2.30;1.20;;;16.70;99.90;;;;;;5005758;28;20050;-82
2023/05/11 10:11:52;;;;;;;2.50;1.50;;;16.80;99.90;;;;;;5005301;28;20405;-83
2023/05/11 10:14:19;;;;;;;1.80;1.08;;;17.00;99.90;;;;;;5003874;28;20046;-84
2023/05/11 10:16:46;;;;;;;3.30;1.30;;;17.00;99.90;;;;;;5001473;28;20070;-83
2023/05/11 10:19:14;;;;;;;4.72;1.45;;;17.10;99.90;;;;;;5002207;28;20046;-83
2023/05/11 10:21:42;;;;;;;2.45;1.42;;;17.20;99.90;;;;;;5002880;28;20420;-83
2023/05/11 10:24:10;;;;;;;1.67;1.13;;;17.20;99.90;;;;;;5003960;28;20050;-82
2023/05/11 10:26:37;;;;;;;2.40;1.33;;;17.10;99.90;;;;;;5004872;28;20674;-82
2023/05/11 10:29:04;;;;;;;4.53;1.77;;;17.10;99.90;;;;;;5003328;28;20054;-84
2023/05/11 10:31:31;;;;;;;3.35;1.40;;;17.10;99.90;;;;;;4998543;28;20577;-84
2023/05/11 10:34:00;;;;;;;3.53;1.48;;;17.20;99.90;;;;;;5007613;28;20069;-83
2023/05/11 10:36:27;;;;;;;4.97;1.35;;;17.40;99.90;;;;;;5004662;28;20049;-83
2023/05/11 10:38:53;;;;;;;1.90;1.25;;;17.50;99.90;;;;;;5004231;28;20061;-83
2023/05/11 10:41:41;;;;;;;1.90;1.25;;;17.70;99.90;;;;;;5001870;28;20427;-83
2023/05/11 10:44:40;;;;;;;2.60;1.25;;;17.80;99.90;;;;;;5002606;28;20049;-83
2023/05/11 10:47:16;;;;;;;2.25;1.33;;;17.70;99.90;;;;;;5002435;28;20126;-82
2023/05/11 10:50:08;;;;;;;3.03;1.23;;;17.70;99.90;;;;;;5006139;28;20042;-84
2023/05/11 10:53:03;;;;;;;3.63;1.40;;;17.80;99.90;;;;;;5004938;28;20073;-84
2023/05/11 10:55:39;;;;;;;1.75;1.40;;;17.70;99.90;;;;;;5003362;28;20418;-84
2023/05/11 10:58:09;;;;;;;1.35;0.98;;;17.80;99.90;;;;;;5001071;28;20544;-84
2023/05/11 11:00:54;;;;;;;;;;;17.90;99.90;;;;;;4998699;28;20053;-84
2023/05/11 11:03:21;;;;;;;4.10;1.38;;;18.00;99.90;;;;;;5002404;28;19921;-84
2023/05/11 11:05:49;;;;;;;2.50;1.30;;;18.10;99.90;;;;;;5006196;28;20054;-83
2023/05/11 11:08:15;;;;;;;1.60;1.20;;;18.20;99.90;;;;;;5002913;28;20046;-84
2023/05/11 11:10:45;;;;;;;2.70;1.27;;;18.20;99.90;;;;;;5010629;28;20042;-83
2023/05/11 11:13:13;;;;;;;1.83;1.30;;;18.40;99.90;;;;;;5009409;28;20520;-80
2023/05/11 11:15:52;;;;;;;1.67;1.20;;;18.30;99.90;;;;;;5007500;28;20049;-81
2023/05/11 11:18:23;;;;;;;3.47;1.00;;;18.20;99.90;;;;;;5007045;28;20038;-79
2023/05/11 11:20:52;;;;;;;6.22;1.13;;;18.20;99.90;;;;;;5008943;28;20510;-82
2023/05/11 11:23:41;;;;;;;3.25;1.05;;;18.20;99.90;;;;;;5008137;28;20137;-79
2023/05/11 11:26:09;;;;;;;5.22;1.15;;;18.30;99.90;;;;;;5003069;28;20069;-81
2023/05/11 11:29:08;;;;;;;4.13;1.10;;;18.40;99.90;;;;;;5025371;28;20056;-80
2023/05/11 11:31:36;;;;;;;4.32;1.35;;;18.20;99.90;;;;;;4986312;28;20047;-82
2023/05/11 11:34:28;;;;;;;5.47;1.80;;;18.20;99.90;;;;;;5013226;28;20053;-81
2023/05/11 11:36:54;;;;;;;6.70;1.30;;;17.90;99.90;;;;;;5017702;28;20074;-81
2023/05/11 11:39:24;;;;;;;1.35;1.10;;;17.80;99.90;;;;;;5022846;28;20177;-82
2023/05/11 11:42:05;;;;;;;1.23;0.90;;;17.80;99.90;;;;;;5011159;28;20058;-81
2023/05/11 11:44:36;;;;;;;2.28;1.00;;;17.90;99.90;;;;;;5010357;28;20316;-82
2023/05/11 11:47:20;;;;;;;2.17;1.20;;;17.90;99.90;;;;;;5019167;28;20058;-82
2023/05/11 11:49:52;;;;;;;1.98;1.10;;;17.90;99.90;;;;;;5020847;28;20335;-79
2023/05/11 11:52:28;;;;;;;2.05;1.10;;;17.90;99.90;;;;;;5020169;28;20046;-80
2023/05/11 11:54:58;;;;;;;3.60;1.38;;;18.00;99.90;;;;;;5019773;28;20077;-82
2023/05/11 11:57:31;;;;;;;2.58;1.10;;;18.10;99.90;;;;;;5005801;28;20133;-81
2023/05/11 12:00:05;;;;;;;5.07;1.08;;;18.20;99.90;;;;;;5012992;28;20046;-82
2023/05/11 12:02:33;;;;;;;1.33;1.20;;;18.30;99.90;;;;;;5008560;28;20058;-81
2023/05/11 12:05:05;;;;;;;1.02;0.93;;;18.10;99.90;;;;;;5013515;28;20054;-81
2023/05/11 12:07:33;;;;;;;1.25;1.10;;;18.20;99.90;;;;;;5016102;28;20061;-81
2023/05/11 12:10:03;;;;;;;1.30;0.90;;;18.30;99.90;;;;;;5009126;28;20054;-81
2023/05/11 12:12:30;;;;;;;1.40;1.00;;;18.30;99.90;;;;;;5004614;28;20051;-82
2023/05/11 12:14:58;;;;;;;4.68;0.80;;;18.20;99.90;;;;;;5016028;28;20050;-80
2023/05/11 12:17:28;;;;;;;1.17;0.60;;;17.70;99.90;;;;;;5009039;28;20054;-81
2023/05/11 12:20:11;;;;;;;1.08;0.70;;;17.40;99.90;;;;;;5017992;28;20046;-81
2023/05/11 12:22:37;;;;;;;0.85;0.50;;;17.20;99.90;;;;;;5010875;28;20052;-81
2023/05/11 12:25:05;;;;;;;1.75;0.55;;;16.70;99.90;;;;;;5015888;28;20062;-82
2023/05/11 12:27:32;;;;;;;0.40;0.40;;;16.50;99.90;;;;;;5010921;28;20062;-80
2023/05/11 12:30:00;;;;;;;1.00;0.40;;;16.40;99.90;;;;;;5007460;28;20092;-81
2023/05/11 12:32:30;;;;;;;0.28;0.28;;;16.40;99.90;;;;;;5007576;28;20105;-80
2023/05/11 12:35:03;;;;;;;0.17;0.17;;;16.40;99.90;;;;;;5016358;28;20046;-81
2023/05/11 12:37:30;;;;;;;1.35;0.30;;;16.40;99.90;;;;;;5014180;28;20077;-81
2023/05/11 12:39:58;;;;;;;0.63;0.50;;;16.40;99.90;;;;;;5006854;28;20049;-82
2023/05/11 12:42:25;;;;;;;0.80;0.40;;;16.50;99.90;;;;;;5010967;28;20141;-81
2023/05/11 12:44:53;;;;;;;0.77;0.40;;;16.50;99.90;;;;;;5006124;28;20100;-82
2023/05/11 12:47:20;;;;;;;1.67;0.40;;;16.50;99.90;;;;;;5004713;28;20580;-81
2023/05/11 12:49:46;;;;;;;1.42;0.40;;;16.60;99.90;;;;;;5015526;28;20064;-81
2023/05/11 12:52:13;;;;;;;0.82;0.30;;;16.20;99.90;;;;;;5015642;28;20053;-81
2023/05/11 12:54:46;;;;;;;2.17;0.57;;;16.20;99.90;;;;;;5006106;28;20053;-82
2023/05/11 12:57:30;;;;;;;0.47;0.40;;;16.20;99.90;;;;;;5015220;28;20106;-82
2023/05/11 13:00:10;;;;;;;2.97;0.50;;;16.40;99.90;;;;;;5004528;28;20137;-81